New Haven, Kentucky
Current Conditions -  °F | °C
As of 4:58 AM on Saturday 25 Oct 2014 (Local Time) from KFTK Reporting Station
Few Clouds Few Clouds  
Wind Chill: 48°   Ceiling: Unl
Heat Index: 48°   Visibility: 9mi
Dew Point: 46°   Wind: 0mph
Humidity: 93%   Direction: NA
Pressure: 30.03"   Gusts: NA
Location:  37.66°N, 85.59°W
Report Text: KFTK 250858Z AUTO 00000KT 9SM R18/5500FT FEW090 09/08 A3003 RMK AO2 SLP171 T00870077 58006
Loading
Personal Weather Stations






























Interactive Weather Map New forecast layout! Learn more

10-Day Weather Forecast

Advertisements
Track Severe Weather on mobile